sensor_id;sensor_type;location;lat;lon;timestamp;P1;durP1;ratioP1;P2;durP2;ratioP2
9815;SDS011;4947;44.526;11.360;2022-12-01T00:00:50;30.23;;;17.07;;
9815;SDS011;4947;44.526;11.360;2022-12-01T00:03:20;31.63;;;17.48;;
9815;SDS011;4947;44.526;11.360;2022-12-01T00:05:47;32.95;;;16.65;;
9815;SDS011;4947;44.526;11.360;2022-12-01T00:08:24;33.10;;;16.55;;
9815;SDS011;4947;44.526;11.360;2022-12-01T00:10:52;37.20;;;16.65;;
9815;SDS011;4947;44.526;11.360;2022-12-01T00:13:18;31.73;;;18.15;;
9815;SDS011;4947;44.526;11.360;2022-12-01T00:15:45;31.77;;;17.30;;
9815;SDS011;4947;44.526;11.360;2022-12-01T00:18:14;31.53;;;16.97;;
9815;SDS011;4947;44.526;11.360;2022-12-01T00:20:42;28.70;;;16.27;;
9815;SDS011;4947;44.526;11.360;2022-12-01T00:23:10;34.10;;;17.92;;
9815;SDS011;4947;44.526;11.360;2022-12-01T00:25:38;32.20;;;17.25;;
9815;SDS011;4947;44.526;11.360;2022-12-01T00:28:06;36.78;;;16.85;;
9815;SDS011;4947;44.526;11.360;2022-12-01T00:30:33;33.55;;;17.77;;
9815;SDS011;4947;44.526;11.360;2022-12-01T00:33:01;32.88;;;17.33;;
9815;SDS011;4947;44.526;11.360;2022-12-01T00:35:29;29.20;;;17.30;;
9815;SDS011;4947;44.526;11.360;2022-12-01T00:37:58;31.75;;;17.63;;
9815;SDS011;4947;44.526;11.360;2022-12-01T00:40:25;31.47;;;17.37;;
9815;SDS011;4947;44.526;11.360;2022-12-01T00:42:53;32.17;;;18.23;;
9815;SDS011;4947;44.526;11.360;2022-12-01T00:45:20;31.60;;;16.98;;
9815;SDS011;4947;44.526;11.360;2022-12-01T00:47:48;34.17;;;19.35;;
9815;SDS011;4947;44.526;11.360;2022-12-01T00:50:16;28.50;;;17.08;;
9815;SDS011;4947;44.526;11.360;2022-12-01T00:52:45;33.35;;;19.02;;
9815;SDS011;4947;44.526;11.360;2022-12-01T00:55:13;36.58;;;19.83;;
9815;SDS011;4947;44.526;11.360;2022-12-01T00:57:40;31.17;;;18.08;;
9815;SDS011;4947;44.526;11.360;2022-12-01T01:00:08;30.67;;;17.52;;
9815;SDS011;4947;44.526;11.360;2022-12-01T01:02:37;33.35;;;18.95;;
9815;SDS011;4947;44.526;11.360;2022-12-01T01:05:06;34.85;;;17.77;;
9815;SDS011;4947;44.526;11.360;2022-12-01T01:07:33;35.57;;;20.50;;
9815;SDS011;4947;44.526;11.360;2022-12-01T01:10:03;33.05;;;18.13;;
9815;SDS011;4947;44.526;11.360;2022-12-01T01:12:31;35.17;;;18.30;;
9815;SDS011;4947;44.526;11.360;2022-12-01T01:14:59;36.55;;;18.60;;
9815;SDS011;4947;44.526;11.360;2022-12-01T01:17:26;35.63;;;17.63;;
9815;SDS011;4947;44.526;11.360;2022-12-01T01:19:54;32.95;;;18.33;;
9815;SDS011;4947;44.526;11.360;2022-12-01T01:22:21;33.75;;;17.77;;
9815;SDS011;4947;44.526;11.360;2022-12-01T01:24:49;33.83;;;18.37;;
9815;SDS011;4947;44.526;11.360;2022-12-01T01:27:18;36.00;;;18.83;;
9815;SDS011;4947;44.526;11.360;2022-12-01T01:29:46;36.97;;;19.38;;
9815;SDS011;4947;44.526;11.360;2022-12-01T01:32:14;40.00;;;19.83;;
9815;SDS011;4947;44.526;11.360;2022-12-01T01:34:41;35.90;;;20.42;;
9815;SDS011;4947;44.526;11.360;2022-12-01T01:37:09;36.70;;;20.27;;
9815;SDS011;4947;44.526;11.360;2022-12-01T01:39:37;40.03;;;21.05;;
9815;SDS011;4947;44.526;11.360;2022-12-01T01:42:04;37.60;;;20.70;;
9815;SDS011;4947;44.526;11.360;2022-12-01T01:44:45;37.37;;;21.67;;
9815;SDS011;4947;44.526;11.360;2022-12-01T01:47:15;34.53;;;18.20;;
9815;SDS011;4947;44.526;11.360;2022-12-01T01:49:46;40.37;;;19.83;;
9815;SDS011;4947;44.526;11.360;2022-12-01T01:52:14;38.73;;;20.60;;
9815;SDS011;4947;44.526;11.360;2022-12-01T01:54:43;38.00;;;20.30;;
9815;SDS011;4947;44.526;11.360;2022-12-01T01:57:14;39.97;;;19.73;;
9815;SDS011;4947;44.526;11.360;2022-12-01T01:59:48;37.17;;;19.90;;
9815;SDS011;4947;44.526;11.360;2022-12-01T02:02:19;35.07;;;20.27;;
9815;SDS011;4947;44.526;11.360;2022-12-01T02:04:47;35.67;;;20.57;;
9815;SDS011;4947;44.526;11.360;2022-12-01T02:07:17;34.95;;;19.80;;
9815;SDS011;4947;44.526;11.360;2022-12-01T02:09:45;39.70;;;21.47;;
9815;SDS011;4947;44.526;11.360;2022-12-01T02:12:23;36.78;;;19.83;;
9815;SDS011;4947;44.526;11.360;2022-12-01T02:15:04;42.28;;;22.35;;
9815;SDS011;4947;44.526;11.360;2022-12-01T02:17:43;37.23;;;20.80;;
9815;SDS011;4947;44.526;11.360;2022-12-01T02:20:39;39.60;;;22.33;;
9815;SDS011;4947;44.526;11.360;2022-12-01T02:23:43;41.80;;;21.93;;
9815;SDS011;4947;44.526;11.360;2022-12-01T02:26:49;36.97;;;19.67;;
9815;SDS011;4947;44.526;11.360;2022-12-01T02:29:40;38.47;;;21.10;;
9815;SDS011;4947;44.526;11.360;2022-12-01T02:32:27;35.25;;;19.50;;
9815;SDS011;4947;44.526;11.360;2022-12-01T02:35:02;34.70;;;20.37;;
9815;SDS011;4947;44.526;11.360;2022-12-01T02:37:40;38.78;;;21.10;;
9815;SDS011;4947;44.526;11.360;2022-12-01T02:40:16;37.75;;;21.42;;
9815;SDS011;4947;44.526;11.360;2022-12-01T02:42:50;42.40;;;20.93;;
9815;SDS011;4947;44.526;11.360;2022-12-01T02:45:27;41.13;;;22.07;;
9815;SDS011;4947;44.526;11.360;2022-12-01T02:48:03;36.33;;;20.67;;
9815;SDS011;4947;44.526;11.360;2022-12-01T02:50:34;42.80;;;22.00;;
9815;SDS011;4947;44.526;11.360;2022-12-01T02:53:04;44.37;;;24.40;;
9815;SDS011;4947;44.526;11.360;2022-12-01T02:55:34;40.43;;;21.13;;
9815;SDS011;4947;44.526;11.360;2022-12-01T02:58:11;37.30;;;20.75;;
9815;SDS011;4947;44.526;11.360;2022-12-01T03:00:40;42.27;;;21.90;;
9815;SDS011;4947;44.526;11.360;2022-12-01T03:03:21;41.22;;;21.55;;
9815;SDS011;4947;44.526;11.360;2022-12-01T03:06:01;35.67;;;20.85;;
9815;SDS011;4947;44.526;11.360;2022-12-01T03:08:37;39.88;;;21.98;;
9815;SDS011;4947;44.526;11.360;2022-12-01T03:11:15;39.13;;;21.63;;
9815;SDS011;4947;44.526;11.360;2022-12-01T03:13:56;41.60;;;22.13;;
9815;SDS011;4947;44.526;11.360;2022-12-01T03:16:32;38.72;;;21.63;;
9815;SDS011;4947;44.526;11.360;2022-12-01T03:19:09;37.65;;;21.17;;
9815;SDS011;4947;44.526;11.360;2022-12-01T03:21:43;39.35;;;20.85;;
9815;SDS011;4947;44.526;11.360;2022-12-01T03:24:15;45.87;;;23.67;;
9815;SDS011;4947;44.526;11.360;2022-12-01T03:26:46;42.23;;;23.17;;
9815;SDS011;4947;44.526;11.360;2022-12-01T03:29:16;39.40;;;21.55;;
9815;SDS011;4947;44.526;11.360;2022-12-01T03:31:49;42.13;;;22.55;;
9815;SDS011;4947;44.526;11.360;2022-12-01T03:34:27;43.92;;;23.60;;
9815;SDS011;4947;44.526;11.360;2022-12-01T03:37:00;42.42;;;24.50;;
9815;SDS011;4947;44.526;11.360;2022-12-01T03:39:31;48.22;;;23.55;;
9815;SDS011;4947;44.526;11.360;2022-12-01T03:42:04;38.92;;;21.58;;
9815;SDS011;4947;44.526;11.360;2022-12-01T03:44:38;39.73;;;22.40;;
9815;SDS011;4947;44.526;11.360;2022-12-01T03:47:11;42.80;;;23.20;;
9815;SDS011;4947;44.526;11.360;2022-12-01T03:49:44;41.80;;;22.20;;
9815;SDS011;4947;44.526;11.360;2022-12-01T03:52:14;40.80;;;21.33;;
9815;SDS011;4947;44.526;11.360;2022-12-01T03:54:49;42.50;;;22.40;;
9815;SDS011;4947;44.526;11.360;2022-12-01T03:57:23;43.40;;;22.23;;
9815;SDS011;4947;44.526;11.360;2022-12-01T03:59:54;40.53;;;21.67;;
9815;SDS011;4947;44.526;11.360;2022-12-01T04:02:22;40.80;;;22.20;;
9815;SDS011;4947;44.526;11.360;2022-12-01T04:04:53;37.40;;;20.77;;
9815;SDS011;4947;44.526;11.360;2022-12-01T04:07:21;41.10;;;21.83;;
9815;SDS011;4947;44.526;11.360;2022-12-01T04:09:49;39.97;;;20.93;;
9815;SDS011;4947;44.526;11.360;2022-12-01T04:12:16;43.05;;;21.98;;
9815;SDS011;4947;44.526;11.360;2022-12-01T04:14:54;43.93;;;20.97;;
9815;SDS011;4947;44.526;11.360;2022-12-01T04:17:22;36.47;;;18.75;;
9815;SDS011;4947;44.526;11.360;2022-12-01T04:19:50;34.67;;;19.83;;
9815;SDS011;4947;44.526;11.360;2022-12-01T04:22:20;37.77;;;20.73;;
9815;SDS011;4947;44.526;11.360;2022-12-01T04:24:49;41.57;;;21.00;;
9815;SDS011;4947;44.526;11.360;2022-12-01T04:27:17;39.03;;;20.73;;
9815;SDS011;4947;44.526;11.360;2022-12-01T04:32:20;35.22;;;19.20;;
9815;SDS011;4947;44.526;11.360;2022-12-01T04:34:48;39.70;;;20.60;;
9815;SDS011;4947;44.526;11.360;2022-12-01T04:37:15;37.93;;;21.77;;
9815;SDS011;4947;44.526;11.360;2022-12-01T04:39:45;40.07;;;19.80;;
9815;SDS011;4947;44.526;11.360;2022-12-01T04:42:13;54.67;;;21.48;;
9815;SDS011;4947;44.526;11.360;2022-12-01T04:44:40;36.85;;;20.75;;
9815;SDS011;4947;44.526;11.360;2022-12-01T04:47:08;35.67;;;19.88;;
9815;SDS011;4947;44.526;11.360;2022-12-01T04:49:35;36.43;;;19.70;;
9815;SDS011;4947;44.526;11.360;2022-12-01T04:52:03;39.07;;;21.30;;
9815;SDS011;4947;44.526;11.360;2022-12-01T04:54:30;40.40;;;21.60;;
9815;SDS011;4947;44.526;11.360;2022-12-01T04:56:59;37.85;;;20.70;;
9815;SDS011;4947;44.526;11.360;2022-12-01T04:59:27;40.53;;;21.88;;
9815;SDS011;4947;44.526;11.360;2022-12-01T05:01:55;40.60;;;21.42;;
9815;SDS011;4947;44.526;11.360;2022-12-01T05:04:22;38.33;;;21.07;;
9815;SDS011;4947;44.526;11.360;2022-12-01T05:06:52;45.87;;;21.53;;
9815;SDS011;4947;44.526;11.360;2022-12-01T05:09:20;36.33;;;20.57;;
9815;SDS011;4947;44.526;11.360;2022-12-01T05:11:48;40.27;;;21.70;;
9815;SDS011;4947;44.526;11.360;2022-12-01T05:14:17;42.63;;;21.60;;
9815;SDS011;4947;44.526;11.360;2022-12-01T05:16:44;39.38;;;21.25;;
9815;SDS011;4947;44.526;11.360;2022-12-01T05:19:11;37.43;;;20.53;;
9815;SDS011;4947;44.526;11.360;2022-12-01T05:21:55;37.33;;;19.80;;
9815;SDS011;4947;44.526;11.360;2022-12-01T05:24:23;36.73;;;21.27;;
9815;SDS011;4947;44.526;11.360;2022-12-01T05:26:51;35.97;;;19.17;;
9815;SDS011;4947;44.526;11.360;2022-12-01T05:29:20;36.72;;;20.05;;
9815;SDS011;4947;44.526;11.360;2022-12-01T05:31:48;39.13;;;20.48;;
9815;SDS011;4947;44.526;11.360;2022-12-01T05:34:15;41.03;;;22.57;;
9815;SDS011;4947;44.526;11.360;2022-12-01T05:36:42;43.67;;;21.33;;
9815;SDS011;4947;44.526;11.360;2022-12-01T05:39:10;36.55;;;20.02;;
9815;SDS011;4947;44.526;11.360;2022-12-01T05:41:38;37.00;;;20.63;;
9815;SDS011;4947;44.526;11.360;2022-12-01T05:44:06;37.33;;;20.10;;
9815;SDS011;4947;44.526;11.360;2022-12-01T05:46:35;38.47;;;21.00;;
9815;SDS011;4947;44.526;11.360;2022-12-01T05:49:02;40.37;;;20.93;;
9815;SDS011;4947;44.526;11.360;2022-12-01T05:51:31;44.77;;;21.67;;
9815;SDS011;4947;44.526;11.360;2022-12-01T05:53:58;37.22;;;19.83;;
9815;SDS011;4947;44.526;11.360;2022-12-01T05:56:26;38.55;;;21.23;;
9815;SDS011;4947;44.526;11.360;2022-12-01T05:58:53;42.13;;;20.60;;
9815;SDS011;4947;44.526;11.360;2022-12-01T06:01:20;36.77;;;19.43;;
9815;SDS011;4947;44.526;11.360;2022-12-01T06:03:49;40.93;;;21.27;;
9815;SDS011;4947;44.526;11.360;2022-12-01T06:06:18;38.13;;;20.07;;
9815;SDS011;4947;44.526;11.360;2022-12-01T06:08:46;39.40;;;19.53;;
9815;SDS011;4947;44.526;11.360;2022-12-01T06:11:13;37.83;;;20.60;;
9815;SDS011;4947;44.526;11.360;2022-12-01T06:13:41;37.95;;;20.83;;
9815;SDS011;4947;44.526;11.360;2022-12-01T06:16:08;41.22;;;21.35;;
9815;SDS011;4947;44.526;11.360;2022-12-01T06:18:36;32.33;;;18.58;;
9815;SDS011;4947;44.526;11.360;2022-12-01T06:21:06;39.15;;;20.80;;
9815;SDS011;4947;44.526;11.360;2022-12-01T06:23:34;42.80;;;21.40;;
9815;SDS011;4947;44.526;11.360;2022-12-01T06:26:01;38.17;;;20.80;;
9815;SDS011;4947;44.526;11.360;2022-12-01T06:28:29;35.75;;;19.45;;
9815;SDS011;4947;44.526;11.360;2022-12-01T06:30:57;38.27;;;20.53;;
9815;SDS011;4947;44.526;11.360;2022-12-01T06:33:24;42.20;;;23.13;;
9815;SDS011;4947;44.526;11.360;2022-12-01T06:35:55;36.30;;;19.77;;
9815;SDS011;4947;44.526;11.360;2022-12-01T06:38:25;38.57;;;20.63;;
9815;SDS011;4947;44.526;11.360;2022-12-01T06:40:55;39.37;;;20.27;;
9815;SDS011;4947;44.526;11.360;2022-12-01T06:43:23;37.15;;;21.42;;
9815;SDS011;4947;44.526;11.360;2022-12-01T06:45:50;36.83;;;20.80;;
9815;SDS011;4947;44.526;11.360;2022-12-01T06:48:18;39.57;;;21.07;;
9815;SDS011;4947;44.526;11.360;2022-12-01T06:50:45;41.37;;;20.30;;
9815;SDS011;4947;44.526;11.360;2022-12-01T06:53:13;33.97;;;19.57;;
9815;SDS011;4947;44.526;11.360;2022-12-01T06:55:42;39.80;;;21.10;;
9815;SDS011;4947;44.526;11.360;2022-12-01T06:58:10;43.53;;;19.45;;
9815;SDS011;4947;44.526;11.360;2022-12-01T07:00:37;38.40;;;20.67;;
9815;SDS011;4947;44.526;11.360;2022-12-01T07:03:05;41.93;;;22.37;;
9815;SDS011;4947;44.526;11.360;2022-12-01T07:05:32;39.78;;;20.77;;
9815;SDS011;4947;44.526;11.360;2022-12-01T07:08:00;44.47;;;22.47;;
9815;SDS011;4947;44.526;11.360;2022-12-01T07:10:28;46.65;;;21.95;;
9815;SDS011;4947;44.526;11.360;2022-12-01T07:12:57;38.22;;;20.45;;
9815;SDS011;4947;44.526;11.360;2022-12-01T07:15:24;38.28;;;20.27;;
9815;SDS011;4947;44.526;11.360;2022-12-01T07:17:52;45.33;;;21.40;;
9815;SDS011;4947;44.526;11.360;2022-12-01T07:20:20;38.00;;;20.43;;
9815;SDS011;4947;44.526;11.360;2022-12-01T07:22:47;44.17;;;22.70;;
9815;SDS011;4947;44.526;11.360;2022-12-01T07:25:16;41.00;;;22.43;;
9815;SDS011;4947;44.526;11.360;2022-12-01T07:27:44;46.87;;;22.23;;
9815;SDS011;4947;44.526;11.360;2022-12-01T07:30:13;40.28;;;21.60;;
9815;SDS011;4947;44.526;11.360;2022-12-01T07:32:41;38.15;;;21.05;;
9815;SDS011;4947;44.526;11.360;2022-12-01T07:35:08;46.00;;;21.13;;
9815;SDS011;4947;44.526;11.360;2022-12-01T07:37:36;42.22;;;21.60;;
9815;SDS011;4947;44.526;11.360;2022-12-01T07:40:04;38.83;;;20.53;;
9815;SDS011;4947;44.526;11.360;2022-12-01T07:42:32;41.17;;;21.60;;
9815;SDS011;4947;44.526;11.360;2022-12-01T07:45:00;43.28;;;22.85;;
9815;SDS011;4947;44.526;11.360;2022-12-01T07:47:30;41.42;;;21.42;;
9815;SDS011;4947;44.526;11.360;2022-12-01T07:49:58;42.35;;;21.63;;
9815;SDS011;4947;44.526;11.360;2022-12-01T07:52:25;44.63;;;21.77;;
9815;SDS011;4947;44.526;11.360;2022-12-01T07:54:52;36.92;;;19.75;;
9815;SDS011;4947;44.526;11.360;2022-12-01T07:57:20;39.67;;;22.33;;
9815;SDS011;4947;44.526;11.360;2022-12-01T07:59:47;47.63;;;23.00;;
9815;SDS011;4947;44.526;11.360;2022-12-01T08:02:15;46.87;;;22.87;;
9815;SDS011;4947;44.526;11.360;2022-12-01T08:04:43;45.08;;;22.13;;
9815;SDS011;4947;44.526;11.360;2022-12-01T08:07:11;45.00;;;21.77;;
9815;SDS011;4947;44.526;11.360;2022-12-01T08:09:40;43.58;;;23.15;;
9815;SDS011;4947;44.526;11.360;2022-12-01T08:12:09;44.47;;;22.67;;
9815;SDS011;4947;44.526;11.360;2022-12-01T08:14:36;42.95;;;21.08;;
9815;SDS011;4947;44.526;11.360;2022-12-01T08:17:03;38.30;;;20.48;;
9815;SDS011;4947;44.526;11.360;2022-12-01T08:19:31;38.17;;;21.70;;
9815;SDS011;4947;44.526;11.360;2022-12-01T08:21:59;42.30;;;21.77;;
9815;SDS011;4947;44.526;11.360;2022-12-01T08:24:27;42.30;;;21.47;;
9815;SDS011;4947;44.526;11.360;2022-12-01T08:26:55;41.90;;;20.85;;
9815;SDS011;4947;44.526;11.360;2022-12-01T08:29:22;41.53;;;21.83;;
9815;SDS011;4947;44.526;11.360;2022-12-01T08:31:50;38.63;;;19.25;;
9815;SDS011;4947;44.526;11.360;2022-12-01T08:34:18;43.50;;;21.45;;
9815;SDS011;4947;44.526;11.360;2022-12-01T08:36:45;42.60;;;20.08;;
9815;SDS011;4947;44.526;11.360;2022-12-01T08:39:14;39.87;;;21.30;;
9815;SDS011;4947;44.526;11.360;2022-12-01T08:41:42;40.53;;;20.73;;
9815;SDS011;4947;44.526;11.360;2022-12-01T08:44:10;40.13;;;20.00;;
9815;SDS011;4947;44.526;11.360;2022-12-01T08:46:37;39.28;;;19.67;;
9815;SDS011;4947;44.526;11.360;2022-12-01T08:49:05;39.72;;;20.70;;
9815;SDS011;4947;44.526;11.360;2022-12-01T08:51:33;34.35;;;20.77;;
9815;SDS011;4947;44.526;11.360;2022-12-01T08:54:00;38.97;;;23.23;;
9815;SDS011;4947;44.526;11.360;2022-12-01T08:56:30;37.80;;;20.52;;
9815;SDS011;4947;44.526;11.360;2022-12-01T08:58:59;40.60;;;21.23;;
9815;SDS011;4947;44.526;11.360;2022-12-01T09:01:27;40.80;;;21.43;;
9815;SDS011;4947;44.526;11.360;2022-12-01T09:03:56;42.25;;;21.60;;
9815;SDS011;4947;44.526;11.360;2022-12-01T09:06:34;42.40;;;22.00;;
9815;SDS011;4947;44.526;11.360;2022-12-01T09:09:04;39.67;;;21.35;;
9815;SDS011;4947;44.526;11.360;2022-12-01T09:11:34;39.93;;;21.70;;
9815;SDS011;4947;44.526;11.360;2022-12-01T09:14:01;42.17;;;22.27;;
9815;SDS011;4947;44.526;11.360;2022-12-01T09:16:29;44.30;;;21.30;;
9815;SDS011;4947;44.526;11.360;2022-12-01T09:18:56;35.97;;;20.10;;
9815;SDS011;4947;44.526;11.360;2022-12-01T09:21:24;45.25;;;20.95;;
9815;SDS011;4947;44.526;11.360;2022-12-01T09:23:54;38.15;;;21.55;;
9815;SDS011;4947;44.526;11.360;2022-12-01T09:26:22;42.13;;;20.48;;
9815;SDS011;4947;44.526;11.360;2022-12-01T09:28:53;44.10;;;22.48;;
9815;SDS011;4947;44.526;11.360;2022-12-01T09:31:21;40.72;;;21.58;;
9815;SDS011;4947;44.526;11.360;2022-12-01T09:33:52;43.03;;;22.77;;
9815;SDS011;4947;44.526;11.360;2022-12-01T09:36:22;43.83;;;22.10;;
9815;SDS011;4947;44.526;11.360;2022-12-01T09:38:49;49.43;;;23.10;;
9815;SDS011;4947;44.526;11.360;2022-12-01T09:41:18;45.20;;;22.55;;
9815;SDS011;4947;44.526;11.360;2022-12-01T09:43:50;45.05;;;23.80;;
9815;SDS011;4947;44.526;11.360;2022-12-01T09:46:24;38.73;;;22.37;;
9815;SDS011;4947;44.526;11.360;2022-12-01T09:48:54;40.72;;;22.75;;
9815;SDS011;4947;44.526;11.360;2022-12-01T09:51:24;50.67;;;25.73;;
9815;SDS011;4947;44.526;11.360;2022-12-01T09:53:54;44.60;;;22.35;;
9815;SDS011;4947;44.526;11.360;2022-12-01T09:56:25;42.78;;;22.27;;
9815;SDS011;4947;44.526;11.360;2022-12-01T09:58:56;45.03;;;22.52;;
9815;SDS011;4947;44.526;11.360;2022-12-01T10:01:29;43.42;;;23.45;;
9815;SDS011;4947;44.526;11.360;2022-12-01T10:03:59;38.47;;;21.52;;
9815;SDS011;4947;44.526;11.360;2022-12-01T10:06:33;44.90;;;23.52;;
9815;SDS011;4947;44.526;11.360;2022-12-01T10:09:06;44.03;;;22.48;;
9815;SDS011;4947;44.526;11.360;2022-12-01T10:11:43;43.72;;;21.83;;
9815;SDS011;4947;44.526;11.360;2022-12-01T10:14:15;43.85;;;21.35;;
9815;SDS011;4947;44.526;11.360;2022-12-01T10:16:45;46.10;;;22.92;;
9815;SDS011;4947;44.526;11.360;2022-12-01T10:19:22;38.45;;;21.33;;
9815;SDS011;4947;44.526;11.360;2022-12-01T10:21:58;32.42;;;18.20;;
9815;SDS011;4947;44.526;11.360;2022-12-01T10:24:45;35.75;;;19.90;;
9815;SDS011;4947;44.526;11.360;2022-12-01T10:27:23;36.15;;;20.02;;
9815;SDS011;4947;44.526;11.360;2022-12-01T10:30:02;38.17;;;19.52;;
9815;SDS011;4947;44.526;11.360;2022-12-01T10:32:35;34.20;;;18.00;;
9815;SDS011;4947;44.526;11.360;2022-12-01T10:35:10;35.78;;;18.98;;
9815;SDS011;4947;44.526;11.360;2022-12-01T10:37:40;32.08;;;17.45;;
9815;SDS011;4947;44.526;11.360;2022-12-01T10:40:11;34.55;;;19.90;;
9815;SDS011;4947;44.526;11.360;2022-12-01T10:42:40;32.38;;;17.38;;
9815;SDS011;4947;44.526;11.360;2022-12-01T10:45:12;31.75;;;18.42;;
9815;SDS011;4947;44.526;11.360;2022-12-01T10:50:35;28.88;;;16.50;;
9815;SDS011;4947;44.526;11.360;2022-12-01T10:53:03;31.80;;;17.23;;
9815;SDS011;4947;44.526;11.360;2022-12-01T10:55:31;30.48;;;17.65;;
9815;SDS011;4947;44.526;11.360;2022-12-01T10:58:04;38.00;;;18.13;;
9815;SDS011;4947;44.526;11.360;2022-12-01T11:00:41;32.85;;;17.95;;
9815;SDS011;4947;44.526;11.360;2022-12-01T11:03:16;33.25;;;17.23;;
9815;SDS011;4947;44.526;11.360;2022-12-01T11:05:45;35.85;;;18.15;;
9815;SDS011;4947;44.526;11.360;2022-12-01T11:08:21;34.08;;;19.10;;
9815;SDS011;4947;44.526;11.360;2022-12-01T11:10:50;34.97;;;19.85;;
9815;SDS011;4947;44.526;11.360;2022-12-01T11:13:19;35.20;;;18.50;;
9815;SDS011;4947;44.526;11.360;2022-12-01T11:15:51;32.70;;;18.25;;
9815;SDS011;4947;44.526;11.360;2022-12-01T11:18:21;34.55;;;19.45;;
9815;SDS011;4947;44.526;11.360;2022-12-01T11:21:03;33.85;;;17.98;;
9815;SDS011;4947;44.526;11.360;2022-12-01T11:23:35;33.72;;;19.65;;
9815;SDS011;4947;44.526;11.360;2022-12-01T11:26:05;36.45;;;18.95;;
9815;SDS011;4947;44.526;11.360;2022-12-01T11:28:39;31.98;;;18.23;;
9815;SDS011;4947;44.526;11.360;2022-12-01T11:31:17;37.35;;;20.10;;
9815;SDS011;4947;44.526;11.360;2022-12-01T11:33:47;35.75;;;19.55;;
9815;SDS011;4947;44.526;11.360;2022-12-01T11:36:18;30.85;;;19.00;;
9815;SDS011;4947;44.526;11.360;2022-12-01T11:38:47;41.10;;;18.23;;
9815;SDS011;4947;44.526;11.360;2022-12-01T11:41:27;31.55;;;19.48;;
9815;SDS011;4947;44.526;11.360;2022-12-01T11:43:58;31.30;;;18.98;;
9815;SDS011;4947;44.526;11.360;2022-12-01T11:46:30;30.75;;;18.23;;
9815;SDS011;4947;44.526;11.360;2022-12-01T11:49:00;29.75;;;16.60;;
9815;SDS011;4947;44.526;11.360;2022-12-01T11:51:29;32.88;;;17.83;;
9815;SDS011;4947;44.526;11.360;2022-12-01T11:54:05;33.60;;;19.30;;
9815;SDS011;4947;44.526;11.360;2022-12-01T11:56:39;35.83;;;19.00;;
9815;SDS011;4947;44.526;11.360;2022-12-01T11:59:09;29.67;;;17.92;;
9815;SDS011;4947;44.526;11.360;2022-12-01T12:01:46;29.17;;;18.73;;
9815;SDS011;4947;44.526;11.360;2022-12-01T12:04:24;30.80;;;18.50;;
9815;SDS011;4947;44.526;11.360;2022-12-01T12:07:08;32.08;;;18.88;;
9815;SDS011;4947;44.526;11.360;2022-12-01T12:09:48;34.67;;;17.88;;
9815;SDS011;4947;44.526;11.360;2022-12-01T12:12:34;34.67;;;18.67;;
9815;SDS011;4947;44.526;11.360;2022-12-01T12:15:17;30.80;;;18.02;;
9815;SDS011;4947;44.526;11.360;2022-12-01T12:17:58;31.90;;;18.35;;
9815;SDS011;4947;44.526;11.360;2022-12-01T12:20:41;30.70;;;17.63;;
9815;SDS011;4947;44.526;11.360;2022-12-01T12:23:24;31.00;;;18.70;;
9815;SDS011;4947;44.526;11.360;2022-12-01T12:26:08;36.33;;;19.50;;
9815;SDS011;4947;44.526;11.360;2022-12-01T12:28:48;40.40;;;20.27;;
9815;SDS011;4947;44.526;11.360;2022-12-01T12:31:26;33.85;;;18.23;;
9815;SDS011;4947;44.526;11.360;2022-12-01T12:34:04;33.00;;;19.00;;
9815;SDS011;4947;44.526;11.360;2022-12-01T12:36:51;34.67;;;19.15;;
9815;SDS011;4947;44.526;11.360;2022-12-01T12:39:28;27.80;;;17.27;;
9815;SDS011;4947;44.526;11.360;2022-12-01T12:42:07;35.80;;;19.13;;
9815;SDS011;4947;44.526;11.360;2022-12-01T12:44:46;37.15;;;19.42;;
9815;SDS011;4947;44.526;11.360;2022-12-01T12:47:18;35.50;;;18.70;;
9815;SDS011;4947;44.526;11.360;2022-12-01T12:50:00;30.65;;;18.50;;
9815;SDS011;4947;44.526;11.360;2022-12-01T12:52:40;30.17;;;19.92;;
9815;SDS011;4947;44.526;11.360;2022-12-01T12:55:11;30.70;;;17.75;;
9815;SDS011;4947;44.526;11.360;2022-12-01T12:57:43;38.05;;;20.50;;
9815;SDS011;4947;44.526;11.360;2022-12-01T13:00:16;36.72;;;18.58;;
9815;SDS011;4947;44.526;11.360;2022-12-01T13:02:46;34.13;;;19.75;;
9815;SDS011;4947;44.526;11.360;2022-12-01T13:05:20;31.50;;;18.27;;
9815;SDS011;4947;44.526;11.360;2022-12-01T13:07:52;32.45;;;19.10;;
9815;SDS011;4947;44.526;11.360;2022-12-01T13:10:25;29.85;;;17.92;;
9815;SDS011;4947;44.526;11.360;2022-12-01T13:13:02;35.45;;;18.45;;
9815;SDS011;4947;44.526;11.360;2022-12-01T13:15:39;34.05;;;18.77;;
9815;SDS011;4947;44.526;11.360;2022-12-01T13:18:09;32.33;;;18.25;;
9815;SDS011;4947;44.526;11.360;2022-12-01T13:20:44;29.33;;;17.77;;
9815;SDS011;4947;44.526;11.360;2022-12-01T13:23:13;28.50;;;17.38;;
9815;SDS011;4947;44.526;11.360;2022-12-01T13:25:44;33.97;;;18.30;;
9815;SDS011;4947;44.526;11.360;2022-12-01T13:28:16;32.30;;;19.13;;
9815;SDS011;4947;44.526;11.360;2022-12-01T13:31:00;31.70;;;17.55;;
9815;SDS011;4947;44.526;11.360;2022-12-01T13:33:29;32.60;;;18.02;;
9815;SDS011;4947;44.526;11.360;2022-12-01T13:35:59;28.95;;;16.52;;
9815;SDS011;4947;44.526;11.360;2022-12-01T13:38:27;29.05;;;16.55;;
9815;SDS011;4947;44.526;11.360;2022-12-01T13:41:10;26.55;;;15.48;;
9815;SDS011;4947;44.526;11.360;2022-12-01T13:43:45;26.20;;;15.20;;
9815;SDS011;4947;44.526;11.360;2022-12-01T13:46:23;21.42;;;13.52;;
9815;SDS011;4947;44.526;11.360;2022-12-01T13:48:52;26.83;;;15.27;;
9815;SDS011;4947;44.526;11.360;2022-12-01T13:51:22;24.38;;;14.90;;
9815;SDS011;4947;44.526;11.360;2022-12-01T13:54:00;27.23;;;14.52;;
9815;SDS011;4947;44.526;11.360;2022-12-01T13:56:34;28.27;;;15.95;;
9815;SDS011;4947;44.526;11.360;2022-12-01T13:59:10;25.65;;;14.70;;
9815;SDS011;4947;44.526;11.360;2022-12-01T14:02:15;25.42;;;15.07;;
9815;SDS011;4947;44.526;11.360;2022-12-01T14:04:46;27.02;;;13.63;;
9815;SDS011;4947;44.526;11.360;2022-12-01T14:10:15;27.42;;;14.77;;
9815;SDS011;4947;44.526;11.360;2022-12-01T14:12:56;28.25;;;14.50;;
9815;SDS011;4947;44.526;11.360;2022-12-01T14:15:28;25.38;;;13.25;;
9815;SDS011;4947;44.526;11.360;2022-12-01T14:18:00;23.58;;;14.55;;
9815;SDS011;4947;44.526;11.360;2022-12-01T14:20:33;25.85;;;14.10;;
9815;SDS011;4947;44.526;11.360;2022-12-01T14:23:11;24.70;;;13.15;;
9815;SDS011;4947;44.526;11.360;2022-12-01T14:25:41;21.70;;;12.75;;
9815;SDS011;4947;44.526;11.360;2022-12-01T14:34:51;21.58;;;13.05;;
9815;SDS011;4947;44.526;11.360;2022-12-01T14:37:22;24.52;;;11.88;;
9815;SDS011;4947;44.526;11.360;2022-12-01T14:39:55;20.33;;;11.88;;
9815;SDS011;4947;44.526;11.360;2022-12-01T14:42:29;25.13;;;11.80;;
9815;SDS011;4947;44.526;11.360;2022-12-01T14:45:19;23.67;;;11.43;;
9815;SDS011;4947;44.526;11.360;2022-12-01T14:47:54;19.67;;;11.02;;
9815;SDS011;4947;44.526;11.360;2022-12-01T14:50:30;20.13;;;11.70;;
9815;SDS011;4947;44.526;11.360;2022-12-01T14:53:04;19.48;;;11.82;;
9815;SDS011;4947;44.526;11.360;2022-12-01T14:55:41;20.83;;;11.77;;
9815;SDS011;4947;44.526;11.360;2022-12-01T14:58:13;20.77;;;11.52;;
9815;SDS011;4947;44.526;11.360;2022-12-01T15:00:53;21.75;;;12.57;;
9815;SDS011;4947;44.526;11.360;2022-12-01T15:03:28;22.30;;;11.85;;
9815;SDS011;4947;44.526;11.360;2022-12-01T15:06:00;20.55;;;12.23;;
9815;SDS011;4947;44.526;11.360;2022-12-01T15:08:29;27.85;;;12.15;;
9815;SDS011;4947;44.526;11.360;2022-12-01T15:10:59;18.88;;;10.95;;
9815;SDS011;4947;44.526;11.360;2022-12-01T15:13:29;26.73;;;12.88;;